Time;durP1;ratioP1;P1;durP2;ratioP2;P2;SDS_P1;SDS_P2;PMS_P1;PMS_P2;Temp;Humidity;BMP_temperature;BMP_pressure;BME280_temperature;BME280_humidity;BME280_pressure;Samples;Min_cycle;Max_cycle;Signal;HPM_P1;HPM_P2
2023/09/30 00:01:11;;;;;;;9.65;3.72;;;;;;;12.34;84.95;101547.75;5011328;28;20059;-45
2023/09/30 00:03:38;;;;;;;11.15;3.72;;;;;;;12.33;84.86;101550.88;5012936;28;20050;-45
2023/09/30 00:06:05;;;;;;;9.57;3.30;;;;;;;12.32;84.87;101555.63;5012090;28;20410;-45
2023/09/30 00:08:32;;;;;;;6.90;3.28;;;;;;;12.32;85.05;101560.34;5010843;28;20052;-45
2023/09/30 00:10:59;;;;;;;9.48;3.40;;;;;;;12.29;85.06;101559.06;4988514;28;20050;-44
2023/09/30 00:13:26;;;;;;;9.10;2.95;;;;;;;12.25;85.22;101558.13;5011160;28;20081;-45
2023/09/30 00:15:53;;;;;;;8.52;2.75;;;;;;;12.24;85.20;101559.25;5011183;28;20041;-44
2023/09/30 00:18:20;;;;;;;12.85;4.22;;;;;;;12.21;85.33;101543.28;4992785;28;20403;-44
2023/09/30 00:20:47;;;;;;;9.93;2.80;;;;;;;12.16;85.63;101551.78;5011126;28;20041;-45
2023/09/30 00:23:14;;;;;;;11.43;4.07;;;;;;;12.13;85.82;101563.56;5010333;28;20049;-44
2023/09/30 00:25:41;;;;;;;8.40;3.45;;;;;;;12.10;85.88;101553.94;5010120;28;20041;-45
2023/09/30 00:28:08;;;;;;;10.80;3.65;;;;;;;12.08;85.78;101566.53;5010813;28;20419;-45
2023/09/30 00:30:35;;;;;;;16.63;4.05;;;;;;;12.06;85.87;101568.84;5011068;28;20054;-44
2023/09/30 00:33:03;;;;;;;8.48;3.17;;;;;;;12.07;85.85;101564.94;5010734;28;20141;-47
2023/09/30 00:35:32;;;;;;;11.80;5.18;;;;;;;12.06;85.66;101568.84;5011328;28;20038;-44
2023/09/30 00:37:59;;;;;;;11.82;3.92;;;;;;;12.03;85.98;101577.84;5009748;28;20083;-45
2023/09/30 00:40:26;;;;;;;10.95;3.75;;;;;;;12.00;86.05;101572.94;5011363;28;20448;-48
2023/09/30 00:42:53;;;;;;;11.18;3.17;;;;;;;11.99;86.01;101574.91;5011117;28;20050;-45
2023/09/30 00:45:20;;;;;;;6.25;2.88;;;;;;;12.00;86.25;101570.19;5010992;28;20049;-45
2023/09/30 00:47:47;;;;;;;8.30;3.30;;;;;;;11.98;86.17;101573.31;5011506;28;20057;-45
2023/09/30 00:50:14;;;;;;;10.30;3.75;;;;;;;11.97;86.02;101587.50;5011215;28;20077;-45
2023/09/30 00:52:41;;;;;;;8.10;2.67;;;;;;;11.95;86.35;101582.28;5011253;28;20049;-44
2023/09/30 00:55:08;;;;;;;7.38;2.75;;;;;;;11.94;86.27;101583.41;5010937;28;20058;-44
2023/09/30 00:57:36;;;;;;;9.10;3.53;;;;;;;11.92;86.28;101576.59;5010552;28;20056;-45
2023/09/30 01:00:03;;;;;;;15.27;4.50;;;;;;;11.89;86.42;101560.59;5010378;28;20137;-45
2023/09/30 01:02:31;;;;;;;7.38;2.72;;;;;;;11.86;86.67;101552.97;5011108;28;20054;-44
2023/09/30 01:04:59;;;;;;;9.05;2.78;;;;;;;11.85;86.43;101531.91;5010685;28;20140;-45
2023/09/30 01:07:26;;;;;;;7.63;3.53;;;;;;;11.83;86.69;101534.22;5010635;28;20042;-45
2023/09/30 01:09:53;;;;;;;7.75;3.42;;;;;;;11.79;86.80;101545.16;4993059;28;20330;-47
2023/09/30 01:12:20;;;;;;;10.27;3.53;;;;;;;11.75;86.74;101548.94;5011665;28;20502;-45
2023/09/30 01:14:48;;;;;;;13.75;3.40;;;;;;;11.71;86.86;101556.28;5010438;28;20443;-45
2023/09/30 01:17:15;;;;;;;13.88;5.20;;;;;;;11.68;87.14;101548.59;4991854;28;20042;-44
2023/09/30 01:19:45;;;;;;;8.32;3.42;;;;;;;11.66;87.09;101551.72;5009911;28;20099;-44
2023/09/30 01:22:12;;;;;;;13.63;3.17;;;;;;;11.60;87.09;101566.91;5010286;28;20046;-45
2023/09/30 01:24:42;;;;;;;9.30;2.97;;;;;;;11.55;87.49;101561.53;5009787;28;20045;-45
2023/09/30 01:27:10;;;;;;;11.23;3.30;;;;;;;11.48;87.53;101570.38;5009494;28;20052;-45
2023/09/30 01:29:40;;;;;;;14.27;3.35;;;;;;;11.42;87.64;101566.16;5010977;28;20475;-45
2023/09/30 01:32:08;;;;;;;10.32;4.65;;;;;;;11.37;87.83;101569.09;5010304;28;20056;-46
2023/09/30 01:34:36;;;;;;;16.23;3.15;;;;;;;11.38;88.10;101578.25;5010473;28;20034;-45
2023/09/30 01:37:03;;;;;;;7.32;2.80;;;;;;;11.40;87.92;101585.09;5007365;28;20472;-45
2023/09/30 01:39:30;;;;;;;11.73;2.90;;;;;;;11.41;87.80;101575.59;4992692;28;20043;-46
2023/09/30 01:41:57;;;;;;;8.40;3.03;;;;;;;11.41;87.69;101586.69;5009908;28;20034;-45
2023/09/30 01:44:24;;;;;;;8.48;3.35;;;;;;;11.38;87.83;101579.06;5010112;28;20046;-45
2023/09/30 01:46:51;;;;;;;9.55;3.15;;;;;;;11.31;87.81;101584.28;4993277;28;20051;-45
2023/09/30 01:49:18;;;;;;;12.50;3.38;;;;;;;11.28;87.96;101576.63;5009568;28;20518;-46
2023/09/30 01:51:45;;;;;;;6.38;2.70;;;;;;;11.26;87.87;101556.75;5008820;28;20045;-45
2023/09/30 01:54:12;;;;;;;5.78;3.33;;;;;;;11.23;88.08;101556.56;5010100;28;20121;-45
2023/09/30 01:56:39;;;;;;;12.65;3.67;;;;;;;11.22;88.03;101552.19;5009929;28;20069;-45
2023/09/30 01:59:06;;;;;;;9.20;3.15;;;;;;;11.19;88.14;101556.44;5010328;28;20045;-46
2023/09/30 02:01:33;;;;;;;11.23;3.75;;;;;;;11.16;88.35;101556.28;5009061;28;20416;-45
2023/09/30 02:04:00;;;;;;;10.25;3.55;;;;;;;11.13;88.51;101554.16;5010207;28;20045;-47
2023/09/30 02:06:28;;;;;;;10.73;3.05;;;;;;;11.18;88.42;101543.72;5007967;28;20132;-45
2023/09/30 02:08:57;;;;;;;11.32;3.20;;;;;;;11.17;87.99;101544.88;5007974;28;20053;-45
2023/09/30 02:11:24;;;;;;;11.95;3.22;;;;;;;11.13;88.25;101557.75;5009723;28;20053;-45
2023/09/30 02:13:51;;;;;;;7.75;3.08;;;;;;;11.11;88.29;101559.22;5009019;28;20037;-47
2023/09/30 02:16:18;;;;;;;6.93;3.83;;;;;;;11.10;88.16;101549.25;5009507;28;20057;-45
2023/09/30 02:18:45;;;;;;;8.52;3.35;;;;;;;11.11;88.27;101553.69;5010252;28;20128;-46
2023/09/30 02:21:12;;;;;;;8.23;3.30;;;;;;;11.10;88.42;101543.72;5009868;28;20050;-45
2023/09/30 02:23:41;;;;;;;9.32;4.20;;;;;;;11.10;88.64;101540.94;5009932;28;20161;-45
2023/09/30 02:26:07;;;;;;;10.77;3.38;;;;;;;11.14;88.85;101537.22;5009050;28;20391;-45
2023/09/30 02:28:34;;;;;;;11.50;4.10;;;;;;;11.17;88.79;101547.66;5009489;28;20053;-45
2023/09/30 02:31:01;;;;;;;13.38;3.25;;;;;;;11.19;88.66;101548.13;5008571;28;20135;-45
2023/09/30 02:33:29;;;;;;;8.38;2.97;;;;;;;11.19;88.85;101550.91;5008195;28;20042;-45
2023/09/30 02:35:57;;;;;;;13.18;3.67;;;;;;;11.22;89.07;101549.41;5007222;28;20038;-45
2023/09/30 02:38:25;;;;;;;6.15;2.75;;;;;;;11.28;89.18;101548.91;4986158;28;20405;-45
2023/09/30 02:40:51;;;;;;;14.65;3.03;;;;;;;11.31;88.98;101536.34;5007965;28;20073;-46
2023/09/30 02:43:19;;;;;;;5.05;2.67;;;;;;;11.30;88.82;101532.78;5007664;28;20532;-45
2023/09/30 02:45:47;;;;;;;10.35;3.75;;;;;;;11.30;88.87;101530.00;5007302;28;20123;-45
2023/09/30 02:48:14;;;;;;;11.85;2.35;;;;;;;11.31;89.03;101523.28;5010414;28;20069;-45
2023/09/30 02:50:44;;;;;;;6.88;2.20;;;;;;;11.29;88.82;101527.53;5011993;28;20160;-45
2023/09/30 02:53:15;;;;;;;8.27;3.05;;;;;;;11.28;89.31;101520.38;5012184;28;20038;-45
2023/09/30 02:55:42;;;;;;;6.00;1.80;;;;;;;11.29;89.12;101519.22;5011295;28;20045;-47
2023/09/30 02:58:10;;;;;;;7.03;1.90;;;;;;;11.25;89.36;101516.28;4993678;28;20487;-46
2023/09/30 03:00:38;;;;;;;7.30;2.85;;;;;;;11.23;89.55;101518.59;5050431;23;21140;-47
2023/09/30 03:03:06;;;;;;;8.63;3.05;;;;;;;11.24;89.80;101509.13;5010348;28;20056;-44
2023/09/30 03:05:33;;;;;;;6.95;1.85;;;;;;;11.28;89.62;101521.19;5011978;28;20443;-44
2023/09/30 03:08:04;;;;;;;8.23;2.28;;;;;;;11.35;89.74;101513.19;5011183;28;20427;-44
2023/09/30 03:10:32;;;;;;;10.77;2.33;;;;;;;11.36;89.84;101500.94;5010855;28;20166;-44
2023/09/30 03:13:02;;;;;;;11.35;2.40;;;;;;;11.38;89.81;101493.13;5011556;28;20451;-44
2023/09/30 03:15:30;;;;;;;7.50;2.30;;;;;;;11.40;89.81;101490.81;5009357;28;20078;-44
2023/09/30 03:18:01;;;;;;;6.32;2.40;;;;;;;11.43;90.12;101483.78;5009891;28;20047;-45
2023/09/30 03:20:28;;;;;;;5.53;2.42;;;;;;;11.45;90.06;101485.09;5010954;28;20137;-44
2023/09/30 03:22:54;;;;;;;5.28;1.83;;;;;;;11.46;90.17;101483.91;5011708;28;20046;-46
2023/09/30 03:25:22;;;;;;;8.93;2.33;;;;;;;11.46;90.15;101489.47;5012753;28;20046;-44
2023/09/30 03:27:49;;;;;;;5.20;1.90;;;;;;;11.46;90.23;101477.59;5012604;28;20400;-44
2023/09/30 03:30:17;;;;;;;9.82;2.20;;;;;;;11.42;90.23;101480.19;5012425;28;20443;-44
2023/09/30 03:32:44;;;;;;;10.38;2.50;;;;;;;11.40;90.21;101473.38;5011186;28;20491;-44
2023/09/30 03:35:17;;;;;;;7.45;2.97;;;;;;;11.37;90.39;101460.97;5010664;28;20092;-45
2023/09/30 03:37:46;;;;;;;8.15;2.42;;;;;;;11.36;90.55;101455.75;5010262;28;20042;-44
2023/09/30 03:40:18;;;;;;;12.23;2.95;;;;;;;11.33;90.72;101454.47;5010605;28;20050;-45
2023/09/30 03:42:49;;;;;;;13.02;2.58;;;;;;;11.31;90.80;101459.53;5011163;28;20049;-45
2023/09/30 03:45:17;;;;;;;5.28;1.88;;;;;;;11.32;90.85;101458.41;5011434;28;20065;-45
2023/09/30 03:47:45;;;;;;;7.78;2.20;;;;;;;11.31;90.90;101458.72;5011331;28;20145;-44
2023/09/30 03:50:14;;;;;;;6.97;2.60;;;;;;;11.34;91.21;101458.06;5011435;28;20065;-44
2023/09/30 03:52:45;;;;;;;9.70;1.88;;;;;;;11.37;91.14;101455.44;5010853;28;20053;-45
2023/09/30 03:55:15;;;;;;;13.70;3.50;;;;;;;11.40;91.22;101471.41;5010329;28;20049;-44
2023/09/30 03:57:43;;;;;;;6.60;2.13;;;;;;;11.40;91.16;101471.41;5011610;28;20046;-44
2023/09/30 04:00:15;;;;;;;10.63;2.50;;;;;;;11.41;91.18;101467.47;5007728;28;20583;-44
2023/09/30 04:02:43;;;;;;;12.70;3.13;;;;;;;11.41;91.26;101472.22;5010872;28;20054;-44
2023/09/30 04:05:12;;;;;;;8.48;2.72;;;;;;;11.39;91.21;101466.19;5010797;28;20419;-44
2023/09/30 04:07:41;;;;;;;9.73;3.13;;;;;;;11.37;91.39;101474.84;5010654;28;20056;-44
2023/09/30 04:10:10;;;;;;;7.80;2.30;;;;;;;11.38;91.52;101465.38;5010270;28;20566;-44
2023/09/30 04:12:41;;;;;;;10.82;1.98;;;;;;;11.36;91.55;101467.66;5006334;28;20396;-44
2023/09/30 04:15:11;;;;;;;13.40;3.00;;;;;;;11.39;91.64;101466.19;5010093;28;20476;-44
2023/09/30 04:17:39;;;;;;;7.68;2.50;;;;;;;11.38;91.51;101470.94;5009933;28;20759;-44
2023/09/30 04:20:15;;;;;;;9.18;2.33;;;;;;;11.36;91.40;101473.19;5010172;28;20049;-44
2023/09/30 04:22:48;;;;;;;5.38;1.85;;;;;;;11.35;91.50;101462.47;5010146;28;20100;-45
2023/09/30 04:25:16;;;;;;;7.22;2.35;;;;;;;11.32;91.68;101460.34;5009296;28;20136;-44
2023/09/30 04:27:45;;;;;;;5.93;1.85;;;;;;;11.31;91.74;101454.00;5010765;28;20041;-45
2023/09/30 04:30:12;;;;;;;6.13;2.22;;;;;;;11.28;91.59;101462.97;5008708;28;20128;-44
2023/09/30 04:32:39;;;;;;;6.10;2.17;;;;;;;11.27;91.87;101458.59;5009310;28;20369;-45
2023/09/30 04:35:09;;;;;;;6.13;2.17;;;;;;;11.25;91.89;101449.75;5010237;28;20415;-45
2023/09/30 04:37:37;;;;;;;13.57;3.17;;;;;;;11.23;91.97;101449.28;5010007;28;20034;-45
2023/09/30 04:40:15;;;;;;;10.10;3.15;;;;;;;11.25;92.12;101449.75;5010028;28;20042;-44
2023/09/30 04:42:44;;;;;;;7.68;2.00;;;;;;;11.25;92.16;101433.13;5009186;28;20482;-44
2023/09/30 04:45:11;;;;;;;6.60;2.30;;;;;;;11.28;92.25;101435.25;5007634;28;20152;-44
2023/09/30 04:47:38;;;;;;;4.85;2.33;;;;;;;11.29;92.03;101422.19;5009856;28;20454;-44
2023/09/30 04:50:09;;;;;;;10.05;2.13;;;;;;;11.28;92.12;101418.63;5008813;28;20072;-45
2023/09/30 04:52:36;;;;;;;8.23;2.78;;;;;;;11.29;92.02;101400.84;5010013;28;20407;-44
2023/09/30 04:55:05;;;;;;;10.15;2.95;;;;;;;11.29;92.15;101408.34;5007540;28;20112;-44
2023/09/30 04:57:32;;;;;;;10.85;3.45;;;;;;;11.29;92.21;101414.72;5009942;28;20509;-50
2023/09/30 04:59:59;;;;;;;10.68;2.13;;;;;;;11.30;92.00;101410.81;5009778;28;20104;-47
2023/09/30 05:02:27;;;;;;;6.65;1.80;;;;;;;11.30;92.03;101410.81;5009806;28;20045;-44
2023/09/30 05:04:54;;;;;;;5.15;1.60;;;;;;;11.31;92.00;101411.59;5009113;28;20132;-45
2023/09/30 05:07:24;;;;;;;8.35;2.10;;;;;;;11.30;92.23;101404.44;5008010;28;20122;-44
2023/09/30 05:09:51;;;;;;;4.28;1.67;;;;;;;11.29;92.36;101405.56;5009157;28;20072;-43
2023/09/30 05:12:18;;;;;;;5.57;1.88;;;;;;;11.28;92.36;101410.28;4984233;28;20440;-45
2023/09/30 05:14:44;;;;;;;12.57;2.28;;;;;;;11.28;92.36;101410.28;5007659;28;20046;-45
2023/09/30 05:17:13;;;;;;;5.30;1.77;;;;;;;11.29;92.56;101411.94;5007570;28;20042;-48
2023/09/30 05:19:40;;;;;;;6.30;1.65;;;;;;;11.30;92.32;101410.81;5009469;28;20052;-45
2023/09/30 05:22:06;;;;;;;10.07;1.75;;;;;;;11.30;92.49;101418.28;5006226;28;20125;-44
2023/09/30 05:24:35;;;;;;;5.43;2.33;;;;;;;11.29;92.41;101411.94;5009479;28;20395;-44
2023/09/30 05:27:02;;;;;;;9.18;1.98;;;;;;;11.29;92.71;101417.47;5009450;28;20050;-44
2023/09/30 05:29:29;;;;;;;7.25;1.85;;;;;;;11.29;92.65;101411.94;5007817;28;20038;-44
2023/09/30 05:31:56;;;;;;;14.07;2.97;;;;;;;11.28;92.51;101421.38;5009163;28;20045;-44
2023/09/30 05:34:23;;;;;;;6.53;1.58;;;;;;;11.29;92.65;101427.75;5008193;28;20046;-44
2023/09/30 05:36:51;;;;;;;6.53;1.48;;;;;;;11.26;92.77;101417.31;5008167;28;20046;-47
2023/09/30 05:39:19;;;;;;;4.47;1.65;;;;;;;11.28;92.70;101415.06;5008618;28;20080;-44
2023/09/30 05:41:47;;;;;;;7.10;2.08;;;;;;;11.27;92.58;101411.47;5009036;28;20507;-44
2023/09/30 05:44:14;;;;;;;4.40;1.77;;;;;;;11.28;92.83;101415.84;5009514;28;20407;-44
2023/09/30 05:46:42;;;;;;;6.60;1.60;;;;;;;11.29;92.73;101408.34;5009296;28;20553;-44
2023/09/30 05:49:13;;;;;;;10.52;3.05;;;;;;;11.30;92.87;101413.56;5009060;28;20053;-44
2023/09/30 05:51:41;;;;;;;7.40;1.73;;;;;;;11.30;92.96;101413.56;5008717;28;20064;-46
2023/09/30 05:54:11;;;;;;;7.75;3.15;;;;;;;11.29;93.25;101417.47;5007432;28;20050;-45
2023/09/30 05:56:40;;;;;;;5.55;1.52;;;;;;;11.30;93.12;101408.03;5009340;28;20046;-44
2023/09/30 05:59:07;;;;;;;7.57;1.75;;;;;;;11.29;93.33;101416.66;5007819;28;20042;-44
2023/09/30 06:01:35;;;;;;;5.30;1.77;;;;;;;11.32;93.37;101421.53;5009023;28;20089;-45
2023/09/30 06:04:04;;;;;;;8.30;2.53;;;;;;;11.30;93.23;101430.19;5009164;28;20044;-44
2023/09/30 06:06:32;;;;;;;11.20;2.17;;;;;;;11.30;93.21;101430.19;5009440;28;20100;-44
2023/09/30 06:08:59;;;;;;;8.77;3.45;;;;;;;11.31;93.27;101442.09;5007897;28;20065;-44
2023/09/30 06:11:28;;;;;;;4.38;1.38;;;;;;;11.32;93.48;101444.53;5009626;28;20050;-44
2023/09/30 06:13:58;;;;;;;7.88;1.58;;;;;;;11.33;93.61;101435.06;5009031;28;20046;-44
2023/09/30 06:16:26;;;;;;;4.47;1.58;;;;;;;11.34;93.68;101445.00;5003879;28;20571;-45
2023/09/30 06:18:54;;;;;;;6.75;1.30;;;;;;;11.34;93.60;101425.59;5009207;28;20119;-44
2023/09/30 06:21:21;;;;;;;5.65;1.48;;;;;;;11.34;93.72;101428.38;5007089;28;20042;-45
2023/09/30 06:23:48;;;;;;;5.82;1.50;;;;;;;11.34;93.72;101427.56;5007861;28;20124;-44
2023/09/30 06:26:16;;;;;;;5.53;1.65;;;;;;;11.35;93.91;101418.94;5008484;28;20052;-44
2023/09/30 06:28:43;;;;;;;4.45;1.45;;;;;;;11.35;93.85;101413.38;5009028;28;20046;-44
2023/09/30 06:31:10;;;;;;;5.65;1.42;;;;;;;11.36;93.98;101416.94;5008351;28;20053;-45
2023/09/30 06:33:39;;;;;;;5.25;1.52;;;;;;;11.36;93.96;101412.22;5008746;28;20054;-45
2023/09/30 06:36:10;;;;;;;5.55;1.90;;;;;;;11.36;93.94;101412.22;5009175;28;20046;-44
2023/09/30 06:38:37;;;;;;;6.60;1.60;;;;;;;11.37;94.22;101408.31;5008089;28;20057;-44
2023/09/30 06:41:05;;;;;;;8.73;1.52;;;;;;;11.37;94.18;101402.75;4978323;28;20046;-44
2023/09/30 06:43:33;;;;;;;4.97;1.67;;;;;;;11.37;94.25;101391.66;5009022;28;20096;-45
2023/09/30 06:46:00;;;;;;;7.80;1.40;;;;;;;11.39;94.35;101388.56;5007731;28;20042;-44
2023/09/30 06:48:27;;;;;;;8.05;2.17;;;;;;;11.40;94.52;101388.22;5008118;28;20521;-44
2023/09/30 06:50:54;;;;;;;6.88;1.83;;;;;;;11.41;94.54;101389.06;5005792;28;20410;-44
2023/09/30 06:53:21;;;;;;;6.85;1.90;;;;;;;11.41;94.59;101384.28;5007363;28;20046;-47
2023/09/30 06:55:48;;;;;;;7.78;1.58;;;;;;;11.43;94.36;101378.44;5008093;28;20046;-45
2023/09/30 06:58:20;;;;;;;6.93;2.03;;;;;;;11.43;94.66;101375.66;5007705;28;20046;-44
2023/09/30 07:00:49;;;;;;;10.00;1.85;;;;;;;11.45;94.78;101379.72;5007626;28;20053;-44
2023/09/30 07:03:17;;;;;;;5.28;1.50;;;;;;;11.46;94.89;101384.09;5008425;28;20133;-43
2023/09/30 07:05:44;;;;;;;5.85;1.42;;;;;;;11.49;94.90;101374.31;5005965;28;20354;-47
2023/09/30 07:08:11;;;;;;;4.75;1.40;;;;;;;11.49;94.99;101366.78;5006639;28;20096;-46
2023/09/30 07:10:39;;;;;;;8.07;1.60;;;;;;;11.51;94.97;101358.97;5008594;28;20097;-44
2023/09/30 07:13:08;;;;;;;5.85;3.25;;;;;;;11.52;94.95;101355.03;5008867;28;20103;-47
2023/09/30 07:15:35;;;;;;;9.15;1.60;;;;;;;11.53;95.07;101358.63;5008712;28;20084;-45
2023/09/30 07:18:03;;;;;;;11.55;2.80;;;;;;;11.55;95.00;101364.63;5008371;28;20396;-44
2023/09/30 07:20:32;;;;;;;3.63;1.15;;;;;;;11.56;95.19;101356.00;5008361;28;20042;-44
2023/09/30 07:23:01;;;;;;;9.77;3.35;;;;;;;11.57;95.32;101349.28;5008865;28;20045;-45
2023/09/30 07:25:42;;;;;;;5.97;1.92;;;;;;;11.60;95.27;101343.06;5007744;28;20061;-44
2023/09/30 07:28:13;;;;;;;6.82;1.77;;;;;;;11.62;95.26;101342.75;5008591;28;20042;-49
2023/09/30 07:30:40;;;;;;;11.40;1.85;;;;;;;11.62;95.37;101343.53;4973777;28;20062;-46
2023/09/30 07:33:07;;;;;;;5.72;1.60;;;;;;;11.65;95.39;101346.81;5008541;28;20403;-46
2023/09/30 07:35:34;;;;;;;10.65;1.90;;;;;;;11.65;95.50;101350.38;5011868;28;20138;-44
2023/09/30 07:38:04;;;;;;;6.32;1.40;;;;;;;11.66;95.26;101343.69;5011937;28;20046;-44
2023/09/30 07:40:31;;;;;;;7.47;2.05;;;;;;;11.69;95.30;101343.03;5012410;28;20372;-46
2023/09/30 07:42:58;;;;;;;6.32;1.42;;;;;;;11.72;95.50;101352.66;5012436;28;20127;-47
2023/09/30 07:45:31;;;;;;;7.50;1.85;;;;;;;11.74;95.23;101344.78;5011233;28;20064;-46
2023/09/30 07:47:58;;;;;;;7.10;1.80;;;;;;;11.74;95.18;101356.72;5009742;28;20073;-45
2023/09/30 07:50:25;;;;;;;5.80;1.42;;;;;;;11.78;95.15;101346.53;5011809;28;20069;-47
2023/09/30 07:52:52;;;;;;;4.40;1.30;;;;;;;11.81;95.09;101345.88;5010054;28;20097;-45
2023/09/30 07:55:19;;;;;;;5.07;2.25;;;;;;;11.85;94.95;101351.56;5008969;28;20076;-44
2023/09/30 07:57:46;;;;;;;6.47;1.30;;;;;;;11.86;95.10;101348.44;5011851;28;20033;-44
2023/09/30 08:00:16;;;;;;;4.90;1.40;;;;;;;11.88;94.87;101365.59;5012164;28;20048;-43
2023/09/30 08:02:44;;;;;;;2.75;1.02;;;;;;;11.90;95.02;101348.59;5011690;28;20038;-44
2023/09/30 08:05:12;;;;;;;6.05;0.95;;;;;;;11.94;94.98;101352.31;5009318;28;20499;-45
2023/09/30 08:07:39;;;;;;;9.25;3.40;;;;;;;11.96;94.65;101342.50;5011083;28;20085;-44
2023/09/30 08:10:07;;;;;;;7.85;1.40;;;;;;;12.01;94.69;101349.78;5010870;28;20092;-45
2023/09/30 08:12:34;;;;;;;5.13;1.20;;;;;;;12.04;94.79;101349.13;5010700;28;20049;-44
2023/09/30 08:15:03;;;;;;;7.38;1.48;;;;;;;12.07;94.67;101348.44;5009601;28;20129;-47
2023/09/30 08:17:30;;;;;;;7.70;2.13;;;;;;;12.10;94.55;101339.41;5000796;28;20058;-46
2023/09/30 08:19:58;;;;;;;6.10;1.80;;;;;;;12.14;94.57;101337.59;5010269;28;20116;-44
2023/09/30 08:22:28;;;;;;;5.80;1.70;;;;;;;12.16;94.61;101329.72;5011317;28;20089;-47
2023/09/30 08:24:55;;;;;;;8.30;1.73;;;;;;;12.18;94.68;101339.34;5009357;28;20056;-43
2023/09/30 08:27:24;;;;;;;5.25;1.25;;;;;;;12.20;94.58;101337.03;5011452;28;20076;-45
2023/09/30 08:29:53;;;;;;;8.00;1.77;;;;;;;12.23;94.61;101330.00;5008631;28;20050;-47
2023/09/30 08:32:21;;;;;;;8.57;1.60;;;;;;;12.26;94.44;101322.94;5009580;28;20038;-44
2023/09/30 08:34:48;;;;;;;8.98;3.10;;;;;;;12.27;94.61;101316.22;5011669;28;20066;-44
2023/09/30 08:37:15;;;;;;;5.35;1.10;;;;;;;12.30;94.73;101319.13;5011215;28;20453;-45
2023/09/30 08:39:42;;;;;;;5.28;1.58;;;;;;;12.34;94.78;101316.50;5009531;28;20402;-44
2023/09/30 08:42:13;;;;;;;9.98;1.33;;;;;;;12.39;94.76;101321.84;5010786;28;20038;-44
2023/09/30 08:44:41;;;;;;;4.18;1.70;;;;;;;12.43;94.98;101325.53;5011064;28;20042;-44
2023/09/30 08:47:09;;;;;;;14.00;1.42;;;;;;;12.44;94.93;101330.75;5010101;28;20053;-46
2023/09/30 08:49:40;;;;;;;6.22;1.20;;;;;;;12.46;94.88;101325.66;5011204;28;20049;-44
2023/09/30 08:52:10;;;;;;;6.63;1.77;;;;;;;12.46;95.17;101322.88;5011206;28;20048;-43
2023/09/30 08:54:38;;;;;;;5.10;1.75;;;;;;;12.48;94.99;101315.00;5010090;28;20046;-43
2023/09/30 08:57:07;;;;;;;5.20;1.30;;;;;;;12.48;95.25;101320.56;5010583;28;20034;-42
2023/09/30 08:59:36;;;;;;;15.55;4.32;;;;;;;12.49;95.64;101311.09;5010551;28;20045;-43
2023/09/30 09:02:08;;;;;;;8.57;1.95;;;;;;;12.50;95.91;101318.25;5010513;28;20460;-42
2023/09/30 09:04:35;;;;;;;;;;;;;;;12.51;96.00;101317.09;5010954;28;20510;-43
2023/09/30 09:07:01;;;;;;;6.30;1.40;;;;;;;12.55;95.95;101315.25;5010220;28;20319;-42
2023/09/30 09:09:28;;;;;;;9.57;1.63;;;;;;;12.60;96.29;101320.56;5010097;28;20046;-43
2023/09/30 09:11:57;;;;;;;9.07;2.17;;;;;;;12.64;96.30;101321.53;5010106;28;20046;-46
2023/09/30 09:14:40;;;;;;;7.63;2.35;;;;;;;12.67;96.47;101318.06;5010703;28;20041;-43
2023/09/30 09:17:11;;;;;;;10.18;2.17;;;;;;;12.69;96.84;101310.19;5009138;28;20046;-42
2023/09/30 09:19:39;;;;;;;9.23;2.00;;;;;;;12.72;97.18;101323.38;5010233;28;20056;-42
2023/09/30 09:22:06;;;;;;;9.00;2.17;;;;;;;12.74;97.45;101326.63;5010052;28;20038;-44
2023/09/30 09:24:42;;;;;;;7.35;1.67;;;;;;;12.76;97.53;101318.75;5010616;28;20570;-43
2023/09/30 09:27:11;;;;;;;5.25;1.67;;;;;;;12.76;97.86;101315.97;5010203;28;20496;-43
2023/09/30 09:29:39;;;;;;;5.45;2.05;;;;;;;12.75;97.76;101325.47;5010197;28;20513;-44
2023/09/30 09:32:11;;;;;;;10.02;2.03;;;;;;;12.74;98.25;101323.03;5010205;28;20160;-43
2023/09/30 09:34:39;;;;;;;;;;;;;;;12.70;98.20;101314.59;5010072;28;20038;-43
2023/09/30 09:37:22;;;;;;;8.30;1.80;;;;;;;12.68;98.25;101303.00;5010049;28;19921;-43
2023/09/30 09:39:50;;;;;;;11.50;2.20;;;;;;;12.68;98.37;101286.31;5008011;28;20056;-43
2023/09/30 09:42:32;;;;;;;6.43;1.70;;;;;;;12.68;98.52;101274.44;5009942;28;20046;-43
2023/09/30 09:45:05;;;;;;;7.88;2.55;;;;;;;12.67;98.74;101284.72;5009604;28;20061;-43
2023/09/30 09:47:33;;;;;;;5.93;1.70;;;;;;;12.67;98.90;101276.38;5007826;28;20042;-45
2023/09/30 09:50:05;;;;;;;7.47;1.55;;;;;;;12.69;99.21;101276.84;5008676;28;20046;-42
2023/09/30 09:52:35;;;;;;;9.40;1.88;;;;;;;12.70;99.26;101263.78;5009670;28;20053;-43
2023/09/30 09:55:02;;;;;;;9.60;1.77;;;;;;;12.73;99.35;101272.22;5009358;28;20512;-44
2023/09/30 09:57:31;;;;;;;5.78;2.00;;;;;;;12.74;99.70;101257.16;5008678;28;20842;-43
2023/09/30 09:59:59;;;;;;;7.45;2.47;;;;;;;12.76;99.93;101254.84;5009986;28;20507;-43
2023/09/30 10:02:27;;;;;;;10.52;2.65;;;;;;;12.79;100.00;101259.72;5008685;28;20046;-43
2023/09/30 10:04:56;;;;;;;9.63;1.83;;;;;;;12.80;100.00;101249.41;5006707;28;20034;-45
2023/09/30 10:07:43;;;;;;;10.60;2.15;;;;;;;12.81;100.00;101257.38;5007544;28;20471;-44
2023/09/30 10:10:16;;;;;;;9.73;2.00;;;;;;;12.83;100.00;101248.72;5006160;28;20483;-44
2023/09/30 10:12:43;;;;;;;9.75;2.35;;;;;;;12.83;100.00;101249.53;5006905;28;20049;-42
2023/09/30 10:15:25;;;;;;;13.70;2.92;;;;;;;12.85;100.00;101246.41;5006884;28;20418;-43
2023/09/30 10:18:04;;;;;;;6.90;1.88;;;;;;;12.84;100.00;101231.69;5007747;28;20132;-42
2023/09/30 10:20:33;;;;;;;9.20;2.20;;;;;;;12.86;100.00;101223.03;5006124;28;20046;-44
2023/09/30 10:23:18;;;;;;;9.40;2.60;;;;;;;12.85;100.00;101218.59;5009606;28;20046;-43
2023/09/30 10:25:49;;;;;;;11.63;2.08;;;;;;;12.84;100.00;101205.88;5009387;28;20088;-44
2023/09/30 10:28:37;;;;;;;16.73;2.53;;;;;;;12.82;100.00;101192.34;5009556;28;20058;-44
2023/09/30 10:31:19;;;;;;;13.38;3.22;;;;;;;12.81;100.00;101179.59;5006778;28;20393;-42
2023/09/30 10:33:58;;;;;;;15.38;3.03;;;;;;;12.80;100.00;101172.44;5006900;28;20052;-42
2023/09/30 10:36:37;;;;;;;9.23;2.53;;;;;;;12.80;100.00;101168.84;5008581;28;20129;-43
2023/09/30 10:39:12;;;;;;;13.13;3.58;;;;;;;12.81;100.00;101173.25;5008643;28;20070;-42
2023/09/30 10:41:39;;;;;;;11.18;2.97;;;;;;;12.81;100.00;101174.03;5006784;28;20057;-49
2023/09/30 10:44:25;;;;;;;21.60;2.92;;;;;;;12.82;100.00;101184.00;5008891;28;20492;-43
2023/09/30 10:46:53;;;;;;;10.65;3.53;;;;;;;12.83;100.00;101176.47;5007695;28;20488;-44
2023/09/30 10:49:23;;;;;;;12.90;2.33;;;;;;;12.84;100.00;101172.53;5008578;28;20137;-45
2023/09/30 10:51:59;;;;;;;14.05;2.33;;;;;;;12.85;100.00;101174.16;4997028;28;20149;-44
2023/09/30 10:54:31;;;;;;;10.70;2.63;;;;;;;12.87;100.00;101168.25;5009253;28;20126;-44
2023/09/30 10:56:59;;;;;;;8.55;3.28;;;;;;;12.87;100.00;101176.59;5006960;28;20042;-43
2023/09/30 10:59:30;;;;;;;12.00;2.60;;;;;;;12.87;100.00;101171.81;5007087;28;20053;-44
2023/09/30 11:01:57;;;;;;;18.63;3.95;;;;;;;12.86;100.00;101170.22;5008138;28;20061;-49
2023/09/30 11:04:27;;;;;;;7.63;2.40;;;;;;;12.86;100.00;101169.41;5005394;28;20160;-44
2023/09/30 11:06:54;;;;;;;15.77;2.95;;;;;;;12.84;100.00;101153.88;5007802;28;20116;-45
2023/09/30 11:09:22;;;;;;;10.02;1.90;;;;;;;12.85;100.00;101165.81;5009866;28;20140;-43
2023/09/30 11:11:52;;;;;;;11.85;3.33;;;;;;;12.86;100.00;101152.72;5011155;28;20064;-46
2023/09/30 11:14:25;;;;;;;10.55;2.97;;;;;;;12.84;100.00;101142.75;5008936;28;20104;-45
2023/09/30 11:17:01;;;;;;;8.75;2.88;;;;;;;12.81;100.00;101149.03;5010870;28;20388;-44
2023/09/30 11:19:39;;;;;;;7.82;3.03;;;;;;;12.79;100.00;101144.97;5011984;28;20057;-48
2023/09/30 11:22:06;;;;;;;11.20;2.53;;;;;;;12.76;100.00;101143.72;5010918;28;20053;-44
2023/09/30 11:24:37;;;;;;;6.57;2.70;;;;;;;12.75;100.00;101152.41;5012245;28;20092;-44
2023/09/30 11:27:07;;;;;;;8.13;2.47;;;;;;;12.71;100.00;101146.72;5008904;28;20050;-47
2023/09/30 11:29:34;;;;;;;12.02;3.45;;;;;;;12.69;100.00;101146.28;5012358;28;20061;-46